createdAt,value
2022-08-26T00:01:17.685Z,2.3374999999999995
2022-08-26T00:04:17.088Z,1.7374999999999998
2022-08-26T00:07:17.280Z,2.1625
2022-08-26T00:11:26.542Z,2.0625
2022-08-26T00:14:16.522Z,2.425
2022-08-26T00:17:16.609Z,2.6875
2022-08-26T00:21:15.991Z,2.4875
2022-08-26T00:24:16.861Z,2.1125
2022-08-26T00:27:16.397Z,2.825
2022-08-26T00:31:16.380Z,2.0625
2022-08-26T00:34:19.441Z,1.9125
2022-08-26T00:37:16.851Z,2.1624999999999996
2022-08-26T00:41:18.742Z,2.3249999999999997
2022-08-26T00:44:17.013Z,2.1125
2022-08-26T00:47:24.477Z,2.2
2022-08-26T00:51:19.403Z,2.25
2022-08-26T00:54:19.576Z,3.0375
2022-08-26T00:57:18.712Z,2.175
2022-08-26T01:01:17.480Z,1.9375
2022-08-26T01:04:21.751Z,2
2022-08-26T01:07:16.720Z,2.3875
2022-08-26T01:11:16.557Z,2.325
2022-08-26T01:14:20.126Z,2.4
2022-08-26T01:17:17.384Z,1.9375
2022-08-26T01:21:25.324Z,2
2022-08-26T01:24:17.441Z,2.05
2022-08-26T01:27:19.612Z,1.7000000000000002
2022-08-26T01:31:19.675Z,2.05
2022-08-26T01:34:21.149Z,2.725
2022-08-26T01:37:19.774Z,2.0125
2022-08-26T01:41:19.726Z,2.4000000000000004
2022-08-26T01:44:22.117Z,2.7874999999999996
2022-08-26T01:47:19.033Z,1.7750000000000001
2022-08-26T01:51:17.571Z,2.5625
2022-08-26T01:54:16.321Z,2.1625
2022-08-26T01:57:18.267Z,2.0125
2022-08-26T02:01:17.589Z,2
2022-08-26T02:04:22.588Z,1.7374999999999998
2022-08-26T02:07:19.890Z,1.6875
2022-08-26T02:11:15.686Z,2.3999999999999995
2022-08-26T02:14:19.864Z,2.025
2022-08-26T02:17:19.036Z,2.1624999999999996
2022-08-26T02:21:16.856Z,2.7125
2022-08-26T02:24:21.219Z,3.0375
2022-08-26T02:27:20.938Z,2.1125
2022-08-26T02:31:16.468Z,2.4125
2022-08-26T02:34:20.877Z,2.5125
2022-08-26T02:37:17.692Z,1.9875
2022-08-26T02:41:16.166Z,2.05
2022-08-26T02:44:16.651Z,2.0875
2022-08-26T02:47:16.600Z,1.6875
2022-08-26T02:51:16.565Z,2.0374999999999996
2022-08-26T02:54:17.475Z,1.8750000000000002
2022-08-26T02:57:17.111Z,2.375
2022-08-26T03:11:47.233Z,2.375
2022-08-26T03:14:47.392Z,2.0375
2022-08-26T03:17:48.100Z,2.3625
2022-08-26T03:21:17.762Z,2.3
2022-08-26T03:24:17.927Z,3.2125000000000004
2022-08-26T03:27:16.720Z,2.2375
2022-08-26T03:31:17.048Z,2.7750000000000004
2022-08-26T03:34:17.876Z,2.0625
2022-08-26T03:37:17.006Z,2.075
2022-08-26T03:41:17.932Z,2.2375
2022-08-26T03:44:16.688Z,2.3125
2022-08-26T03:47:17.143Z,2.1125
2022-08-26T03:51:18.197Z,2.1875
2022-08-26T03:54:16.946Z,2.8375
2022-08-26T03:57:16.848Z,2.2375000000000003
2022-08-26T04:01:16.462Z,2.9749999999999996
2022-08-26T04:04:17.253Z,2.3625
2022-08-26T04:07:17.121Z,2.4124999999999996
2022-08-26T04:11:18.010Z,2.6
2022-08-26T04:14:20.260Z,1.9375
2022-08-26T04:17:17.159Z,2.725
2022-08-26T04:21:16.728Z,2.5875000000000004
2022-08-26T04:24:17.654Z,2.3375000000000004
2022-08-26T04:27:16.932Z,2.7625
2022-08-26T04:31:17.902Z,2.3875
2022-08-26T04:34:16.890Z,1.7375
2022-08-26T04:37:17.073Z,1.9625
2022-08-26T04:41:17.169Z,2.45
2022-08-26T04:44:17.431Z,2.6
2022-08-26T04:47:17.134Z,2.4749999999999996
2022-08-26T04:51:16.230Z,2.4749999999999996
2022-08-26T04:54:16.721Z,2.4000000000000004
2022-08-26T04:57:16.843Z,1.975
2022-08-26T05:01:16.560Z,2.1624999999999996
2022-08-26T05:04:19.070Z,2.375
2022-08-26T05:07:17.700Z,2.6375
2022-08-26T05:11:16.428Z,2.2375
2022-08-26T05:14:16.981Z,2.2
2022-08-26T05:17:16.720Z,2.3
2022-08-26T05:21:18.968Z,2.8625
2022-08-26T05:24:17.780Z,2.6500000000000004
2022-08-26T05:27:16.506Z,2.6624999999999996
2022-08-26T05:31:18.799Z,3.475
2022-08-26T05:34:16.158Z,4.4125
2022-08-26T05:37:17.086Z,4.074999999999999
2022-08-26T05:41:19.173Z,3.3875
2022-08-26T05:44:17.845Z,3.5875000000000004
2022-08-26T05:47:16.331Z,4.95
2022-08-26T05:51:16.694Z,7.074999999999999
2022-08-26T05:54:21.367Z,6.4125
2022-08-26T05:57:16.556Z,6.949999999999999
2022-08-26T06:01:20.397Z,7.6875
2022-08-26T06:04:18.547Z,6.6125
2022-08-26T06:07:18.620Z,5.5125
2022-08-26T06:11:19.588Z,8.6625
2022-08-26T06:14:17.228Z,8.2625
2022-08-26T06:17:16.424Z,10.8
2022-08-26T06:21:19.477Z,10.6125
2022-08-26T06:31:16.011Z,13.725
2022-08-26T06:34:16.081Z,11.700000000000001
2022-08-26T06:37:16.335Z,14.175
2022-08-26T06:41:16.947Z,13.4375
2022-08-26T06:44:17.449Z,11.35
2022-08-26T06:47:15.981Z,9.275
2022-08-26T06:51:18.147Z,10.2625
2022-08-26T06:54:16.105Z,8.075
2022-08-26T06:57:16.870Z,7.65
2022-08-26T07:01:17.399Z,6.4625
2022-08-26T07:04:21.953Z,5.3375
2022-08-26T07:07:16.048Z,4.074999999999999
2022-08-26T07:11:16.694Z,4.1375
2022-08-26T07:14:19.389Z,2.9749999999999996
2022-08-26T07:17:16.936Z,3.5250000000000004
2022-08-26T07:21:16.753Z,3.7375
2022-08-26T07:24:16.201Z,3.6625
2022-08-26T07:27:16.796Z,3.9625000000000004
2022-08-26T07:31:19.964Z,3.6624999999999996
2022-08-26T07:34:17.277Z,3.45
2022-08-26T07:37:17.635Z,3
2022-08-26T07:41:18.702Z,2.875
2022-08-26T07:44:17.218Z,3.2
2022-08-26T07:47:25.147Z,2.7375000000000003
2022-08-26T08:01:16.322Z,2.825
2022-08-26T08:04:20.091Z,2.3
2022-08-26T08:07:16.836Z,2.4125
2022-08-26T08:11:19.232Z,2.7125
2022-08-26T08:14:19.250Z,3.3625000000000003
2022-08-26T08:17:18.352Z,2.875
2022-08-26T08:21:22.182Z,2.4875000000000003
2022-08-26T08:24:17.009Z,2.45
2022-08-26T08:27:18.108Z,2.4875
2022-08-26T08:31:38.711Z,2.6875
2022-08-26T08:34:16.510Z,2.475
2022-08-26T08:37:16.755Z,2.4375
2022-08-26T08:41:29.904Z,3.575
2022-08-26T08:44:19.247Z,3.1875
2022-08-26T08:47:25.078Z,2.7874999999999996
2022-08-26T08:51:36.480Z,2.7375
2022-08-26T09:01:35.215Z,2.65
2022-08-26T09:04:37.452Z,2.8625
2022-08-26T09:07:21.277Z,2.875
2022-08-26T09:11:17.835Z,2.8875
2022-08-26T09:14:16.335Z,2.0875
2022-08-26T09:17:23.814Z,2.3
2022-08-26T09:21:32.288Z,3.125
2022-08-26T09:24:54.924Z,2.875
2022-08-26T09:41:24.382Z,2.5875000000000004
2022-08-26T09:44:18.514Z,2.6624999999999996
2022-08-26T09:47:22.653Z,2.3
2022-08-26T09:51:30.254Z,2.625
2022-08-26T09:54:30.383Z,2.45
2022-08-26T09:57:19.963Z,1.9375
2022-08-26T10:01:30.873Z,2.55
2022-08-26T10:04:21.923Z,1.9125
2022-08-26T10:08:00.344Z,2.85
2022-08-26T10:11:22.001Z,3.0625
2022-08-26T10:14:22.618Z,3.4
2022-08-26T10:17:26.263Z,3.025
2022-08-26T10:21:23.731Z,3.3125
2022-08-26T10:24:22.795Z,3.4125
2022-08-26T10:27:26.427Z,2.6999999999999997
2022-08-26T10:31:28.164Z,3.0875
2022-08-26T10:34:18.042Z,3.0374999999999996
2022-08-26T10:37:20.555Z,2.3875
2022-08-26T10:41:21.322Z,2.575
2022-08-26T10:44:18.873Z,2.6625
2022-08-26T10:47:21.928Z,2.4375
2022-08-26T10:51:23.190Z,2.1125
2022-08-26T10:54:22.921Z,1.8875000000000002
2022-08-26T10:57:22.480Z,2.0375
2022-08-26T11:01:59.204Z,2.6875
2022-08-26T11:11:43.638Z,2.6875
2022-08-26T11:14:53.043Z,2.075
2022-08-26T11:17:55.448Z,1.8625
2022-08-26T11:31:53.497Z,2.275
2022-08-26T11:34:52.574Z,2.3125
2022-08-26T11:37:18.232Z,2.6875
2022-08-26T11:41:20.120Z,2.45
2022-08-26T11:44:19.380Z,2.15
2022-08-26T11:47:27.589Z,1.7625000000000002
2022-08-26T11:51:22.256Z,2.325
2022-08-26T11:54:30.530Z,2.25
2022-08-26T12:01:26.424Z,2.0375
2022-08-26T12:31:23.127Z,2.2874999999999996
2022-08-26T12:41:38.272Z,2.3125
2022-08-26T12:51:22.694Z,1.7875
2022-08-26T13:01:21.439Z,2.4625
2022-08-26T13:11:21.198Z,2.5375
2022-08-26T13:21:19.475Z,2.2750000000000004
2022-08-26T13:31:16.423Z,2.925
2022-08-26T13:41:17.341Z,2.425
2022-08-26T13:51:18.845Z,2.1625000000000005
2022-08-26T14:01:16.687Z,2.4
2022-08-26T14:11:16.944Z,2.0625
2022-08-26T14:21:17.369Z,2.1624999999999996
2022-08-26T14:31:16.839Z,2.5125
2022-08-26T14:41:19.078Z,2.3000000000000003
2022-08-26T14:51:16.279Z,2.7625
2022-08-26T15:11:18.648Z,3.4375
2022-08-26T15:21:16.522Z,1.9375
2022-08-26T15:24:19.210Z,1.975
2022-08-26T15:27:17.054Z,2.2375
2022-08-26T15:41:15.782Z,2.2375
2022-08-26T15:44:17.188Z,2
2022-08-26T15:47:16.257Z,2
2022-08-26T15:51:21.323Z,2.5
2022-08-26T15:54:19.781Z,2.0625
2022-08-26T15:57:19.071Z,1.9875
2022-08-26T16:01:18.079Z,2.85
2022-08-26T16:04:16.307Z,2.5
2022-08-26T16:07:16.515Z,4.8375
2022-08-26T16:11:38.471Z,2.4
2022-08-26T16:14:38.100Z,2.575
2022-08-26T16:17:37.967Z,2.7125
2022-08-26T16:31:16.500Z,3.0124999999999997
2022-08-26T16:34:16.496Z,2.7249999999999996
2022-08-26T16:37:16.461Z,3.1
2022-08-26T16:41:16.791Z,2.7125
2022-08-26T16:44:16.793Z,2.7375
2022-08-26T16:47:17.211Z,2.3125
2022-08-26T16:51:18.620Z,3.1
2022-08-26T16:54:16.591Z,2.6500000000000004
2022-08-26T16:57:16.514Z,2.7874999999999996
2022-08-26T17:01:16.927Z,3.0125
2022-08-26T17:04:16.682Z,2.3375
2022-08-26T17:07:16.732Z,2.8
2022-08-26T17:11:16.504Z,3.3625
2022-08-26T17:14:17.714Z,3.2125000000000004
2022-08-26T17:17:16.753Z,3.0625
2022-08-26T17:21:15.994Z,3.5125
2022-08-26T17:24:16.130Z,3.1375
2022-08-26T17:27:16.114Z,3.325
2022-08-26T17:31:16.375Z,3.425
2022-08-26T17:34:17.012Z,4.050000000000001
2022-08-26T17:37:16.967Z,3.725
2022-08-26T17:41:16.822Z,4.525
2022-08-26T17:44:16.825Z,3.5875
2022-08-26T17:47:16.558Z,3.8000000000000003
2022-08-26T17:51:17.791Z,3.025
2022-08-26T17:54:16.693Z,3.625
2022-08-26T17:57:16.580Z,3.8499999999999996
2022-08-26T18:01:16.299Z,3.65
2022-08-26T18:04:16.712Z,3.325
2022-08-26T18:07:17.016Z,3.725
2022-08-26T18:11:19.894Z,3.9
2022-08-26T18:14:16.812Z,3.4625
2022-08-26T18:17:19.409Z,4.1
2022-08-26T18:21:18.950Z,3.375
2022-08-26T18:24:17.237Z,3.6249999999999996
2022-08-26T18:27:16.828Z,3.4875
2022-08-26T18:31:16.439Z,3.7
2022-08-26T18:34:17.128Z,4.1375
2022-08-26T18:37:16.907Z,2.675
2022-08-26T18:41:17.970Z,4.3875
2022-08-26T18:44:19.694Z,3.6
2022-08-26T18:47:16.990Z,3.45
2022-08-26T18:51:18.695Z,4.2375
2022-08-26T18:54:17.141Z,3.6625
2022-08-26T18:57:16.703Z,3.6625
2022-08-26T19:01:17.769Z,4.1625000000000005
2022-08-26T19:04:16.886Z,4.05
2022-08-26T19:07:16.577Z,3.9
2022-08-26T19:11:16.889Z,4.425
2022-08-26T19:14:17.211Z,3.975
2022-08-26T19:21:22.319Z,3.4375
2022-08-26T19:24:22.303Z,3.4749999999999996
2022-08-26T19:27:21.641Z,3.35
2022-08-26T19:31:16.514Z,4.237500000000001
2022-08-26T19:34:18.333Z,4.0625
2022-08-26T19:41:18.477Z,4.324999999999999
2022-08-26T19:45:09.313Z,3.175
2022-08-26T19:47:16.436Z,4.225
2022-08-26T19:51:19.786Z,3.2375
2022-08-26T19:54:16.783Z,4.85
2022-08-26T19:57:17.279Z,3.7874999999999996
2022-08-26T20:01:17.673Z,3.9625000000000004
2022-08-26T20:04:17.048Z,4.4375
2022-08-26T20:07:18.890Z,3.3125
2022-08-26T20:11:17.064Z,3.8
2022-08-26T20:14:19.137Z,3.5999999999999996
2022-08-26T20:17:17.129Z,3.7375
2022-08-26T20:21:36.748Z,3.8
2022-08-26T20:24:19.305Z,3.1875
2022-08-26T20:27:16.978Z,3.25
2022-08-26T20:31:18.281Z,3.9125
2022-08-26T20:34:19.790Z,3.65
2022-08-26T20:37:18.366Z,4.262499999999999
2022-08-26T20:41:16.710Z,3.8
2022-08-26T20:44:17.404Z,3.7750000000000004
2022-08-26T20:47:16.274Z,3.5875
2022-08-26T20:51:17.816Z,4.3125
2022-08-26T20:54:18.193Z,3.75
2022-08-26T20:57:16.804Z,3.8000000000000003
2022-08-26T21:01:22.160Z,3.875
2022-08-26T21:04:18.979Z,3.55
2022-08-26T21:07:16.250Z,3.6374999999999997
2022-08-26T21:11:17.773Z,4.050000000000001
2022-08-26T21:14:18.125Z,3.675
2022-08-26T21:17:17.039Z,3.1875
2022-08-26T21:31:19.238Z,4.25
2022-08-26T21:34:17.914Z,2.9750000000000005
2022-08-26T21:37:16.973Z,4.0125
2022-08-26T21:41:36.243Z,4.0625
2022-08-26T22:11:16.864Z,3.9875
2022-08-26T22:31:16.855Z,3.8
2022-08-26T22:34:17.564Z,4.3375
2022-08-26T22:37:16.199Z,3.15
2022-08-26T22:41:18.087Z,4.25
2022-08-26T22:44:18.480Z,3.8
2022-08-26T23:01:39.816Z,4.375
2022-08-26T23:04:37.882Z,4.0625
